Autaugaville, Alabama
Current Conditions -  °F | °C
As of 8:15 AM on Monday 26 Jan 2015 (Local Time) from K1A9 Reporting Station
Overcast Overcast  
Wind Chill: 38°   Ceiling: 2400
Heat Index: 45°   Visibility: 10mi
Dew Point: 37°   Wind: 14mph
Humidity: 73%   Direction: 300°WNW
Pressure: 29.97"   Gusts: NA
Location:  32.43°N, 86.65°W
Report Text: K1A9 261415Z AUTO 30012KT 10SM OVC024 07/03 A2997 RMK AO2 T00700025
Loading
Personal Weather Stations






























Interactive Weather Map New forecast layout! Learn more

10-Day Weather Forecast

Advertisements
Track Severe Weather on mobile